Latest Weather Observations for Browse Island

IDW60801

Issued at 7:03 pm WST Monday 2 March 2015 (issued every 30 minutes, with the page automatically refreshed every 10 minutes)

About weather observations | Map of weather stations | Latest weather observations for WA | Other Formats
Station Details ID: 200784 Name: BROWSE ISLAND Lat: -14.11 Lon: 123.55 Height: 3.7 m
Data from the previous 72 hours. | See also: Recent months for locations in Western Australia
Date/Time
WST
Temp
°C
App
Temp
°C
Dew
Point
Rel
Hum
%
Delta-T
°C
Wind Press
QNH
hPa
Press
MSL
hPa
Rain
since 9 am
mm
Dir
 
Spd
km/h
Gust
km/h
Spd
kts
Gust
kts
02/07:00pm 29.1 - - - - WSW 26 26 14 14 1006.0 1005.9 -
02/06:30pm 29.0 - - - - SW 24 24 13 13 1005.0 - -
02/06:00pm 29.1 - - - - WSW 26 28 14 15 1005.0 1005.3 -
02/05:30pm 29.0 - - - - WSW 24 - 13 - 1004.0 - -
02/05:00pm 29.1 - - - - WSW 28 - 15 - 1004.0 1004.4 -
02/04:30pm 29.0 - - - - WSW 30 - 16 - 1004.0 - -
02/04:00pm 29.1 - - - - WSW 28 - 15 - 1004.0 1004.3 -
02/03:30pm 29.0 - - - - WSW 26 - 14 - 1004.0 - -
02/03:00pm 29.3 - - - - WSW 26 - 14 - 1004.0 1004.7 -
02/02:30pm 29.0 - - - - WSW 28 - 15 - 1005.0 - -
02/02:00pm 29.2 - - - - SW 26 - 14 - 1005.0 1005.2 -
02/01:30pm 29.0 - - - - SW 26 - 14 - 1005.0 - -
02/01:00pm 29.3 - - - - SW 26 - 14 - 1005.0 1005.8 -
02/12:30pm 29.0 - - - - SW 28 - 15 - 1006.0 - -
02/12:00pm 29.3 - - - - SW 26 - 14 - 1006.0 1006.6 -
02/11:30am 29.0 - - - - WSW 26 - 14 - 1007.0 - -
02/11:00am 29.2 - - - - WSW 26 - 14 - 1007.0 1007.2 -
02/10:30am 29.0 - - - - SW 28 - 15 - 1007.0 - -
02/10:00am 29.1 - - - - WSW 24 - 13 - 1007.0 1007.5 -
02/09:30am 29.0 - - - - WSW 26 - 14 - 1007.0 - -
02/09:00am 29.1 - - - - SW 24 - 13 - 1007.0 1007.8 -
02/08:30am 29.0 - - - - WSW 24 - 13 - 1007.0 - -
02/08:00am 29.0 - - - - SW 24 - 13 - 1007.0 1007.6 -
02/07:30am 29.0 - - - - SW 22 - 12 - 1007.0 - -
02/07:00am 29.0 - - - - WSW 24 - 13 - 1007.0 1007.3 -
02/06:30am 29.0 - - - - WSW 26 - 14 - 1007.0 - -
02/06:00am 28.9 - - - - WSW 28 30 15 16 1007.0 1006.9 -
02/05:30am 29.0 - - - - W 26 - 14 - 1006.0 - -
02/05:00am 28.2 - - - - W 26 - 14 - 1006.0 1006.2 -
02/04:30am 28.0 - - - - W 35 - 19 - 1006.0 - -
02/04:00am 28.9 - - - - WSW 26 - 14 - 1006.0 1006.0 -
02/03:30am 29.0 - - - - WSW 20 - 11 - 1006.0 - -
02/03:00am 28.9 - - - - WSW 22 - 12 - 1006.0 1006.3 -
02/02:30am 29.0 - - - - WSW 24 - 13 - 1006.0 - -
02/02:00am 29.0 - - - - WSW 26 - 14 - 1006.0 1006.7 -
02/01:30am 29.0 - - - - W 26 - 14 - 1006.0 - -
02/01:00am 28.8 - - - - WSW 22 - 12 - 1007.0 1006.9 -
02/12:30am 29.0 - - - - WSW 22 - 12 - 1007.0 - -
02/12:00am 28.9 - - - - WSW 20 24 11 13 1007.0 1007.2 -
 
Date/Time
WST
Temp
°C
App
Temp
°C
Dew
Point
Rel
Hum
%
Delta-T
°C
Wind Press
QNH
hPa
Press
MSL
hPa
Rain
since 9 am
mm
Dir
 
Spd
km/h
Gust
km/h
Spd
kts
Gust
kts
01/11:30pm 29.0 - - - - WSW 19 - 10 - 1007.0 - -
01/11:00pm 28.8 - - - - WSW 20 - 11 - 1007.0 1007.7 -
01/10:30pm 29.0 - - - - WSW 24 - 13 - 1008.0 - -
01/10:00pm 28.6 - - - - WSW 22 - 12 - 1008.0 1008.0 -
01/09:30pm 29.0 - - - - SW 20 - 11 - 1007.0 - -
01/09:00pm 28.7 - - - - SW 20 - 11 - 1007.0 1007.6 -
01/08:30pm 29.0 - - - - SSW 24 - 13 - 1007.0 - -
01/08:00pm 28.3 - - - - SW 22 - 12 - 1007.0 1007.5 -
01/07:30pm 28.0 - - - - SSW 24 - 13 - 1007.0 - -
01/07:00pm 28.2 - - - - SW 26 - 14 - 1006.0 1006.8 -
01/06:30pm 27.0 - - - - SW 20 - 11 - 1006.0 - -
01/06:00pm 26.5 - - - - SSW 26 - 14 - 1006.0 1006.5 -
01/05:30pm 26.0 - - - - S 32 - 17 - 1006.0 - -
01/05:00pm 26.7 - - - - SSW 41 - 22 - 1006.0 1006.1 -
01/04:41pm 27.0 - - - - SSW 39 - 21 - 1006.0 - -
01/04:30pm 28.0 - - - - SW 17 - 9 - 1006.0 - -
01/04:00pm 28.5 - - - - SW 15 - 8 - 1006.0 1006.2 -
01/03:30pm 28.0 - - - - SW 19 - 10 - 1006.0 - -
01/03:00pm 28.2 - - - - WSW 24 - 13 - 1006.0 1006.4 -
01/02:30pm 28.0 - - - - SW 20 - 11 - 1006.0 - -
01/02:00pm 27.6 - - - - SSW 15 - 8 - 1006.0 1006.8 -
01/01:30pm 28.0 - - - - SW 19 - 10 - 1007.0 - -
01/01:00pm 28.1 - - - - SW 26 - 14 - 1006.0 1006.6 -
01/12:30pm 28.0 - - - - SW 28 - 15 - 1006.0 - -
01/12:00pm 27.4 - - - - SW 37 - 20 - 1007.0 1007.5 -
01/11:30am 28.0 - - - - WSW 32 - 17 - 1007.0 - -
01/11:00am 27.4 - - - - WSW 32 - 17 - 1008.0 1008.4 -
01/10:30am 27.0 - - - - WSW 32 - 17 - 1009.0 - -
01/10:00am 27.0 - - - - W 37 - 20 - 1008.0 1008.6 -
01/09:30am 27.0 - - - - WSW 26 - 14 - 1009.0 - -
01/09:00am 27.0 - - - - W 35 - 19 - 1008.0 1008.6 -
01/08:30am 30.0 - - - - WSW 26 - 14 - 1008.0 - -
01/08:00am 29.5 - - - - WSW 30 - 16 - 1008.0 1008.2 -
01/07:30am 29.0 - - - - WSW 26 - 14 - 1008.0 - -
01/07:00am 27.8 - - - - WNW 28 - 15 - 1008.0 1008.0 -
01/06:30am 29.0 - - - - W 26 - 14 - 1007.0 - -
01/06:00am 29.4 - - - - W 28 - 15 - 1007.0 1007.2 -
01/05:30am 29.0 - - - - W 28 - 15 - 1007.0 - -
01/05:00am 28.7 - - - - W 33 - 18 - 1006.0 1006.6 -
01/04:30am 29.0 - - - - W 28 - 15 - 1006.0 - -
01/04:00am 29.3 - - - - W 28 - 15 - 1006.0 1006.1 -
01/03:30am 29.0 - - - - WSW 26 - 14 - 1006.0 - -
01/03:00am 29.0 - - - - W 24 - 13 - 1005.0 1005.8 -
01/02:30am 29.0 - - - - W 22 - 12 - 1006.0 - -
01/02:00am 29.2 - - - - W 22 - 12 - 1006.0 1006.3 -
01/01:30am 29.0 - - - - W 20 - 11 - 1006.0 - -
01/01:00am 29.2 - - - - W 24 - 13 - 1006.0 1006.5 -
01/12:30am 29.0 - - - - W 20 - 11 - 1007.0 - -
01/12:00am 29.1 - - - - W 24 - 13 - 1007.0 1007.1 -
 
Date/Time
WST
Temp
°C
App
Temp
°C
Dew
Point
Rel
Hum
%
Delta-T
°C
Wind Press
QNH
hPa
Press
MSL
hPa
Rain
since 9 am
mm
Dir
 
Spd
km/h
Gust
km/h
Spd
kts
Gust
kts
28/11:30pm 29.0 - - - - WNW 22 - 12 - 1007.0 - -
28/11:00pm 29.0 - - - - WNW 20 - 11 - 1008.0 1007.9 -
28/10:30pm 29.0 - - - - W 17 - 9 - 1008.0 - -
28/10:00pm 29.1 - - - - W 17 - 9 - 1008.0 1008.4 -
28/09:30pm 29.0 - - - - W 17 - 9 - 1008.0 - -
28/09:00pm 28.9 - - - - W 19 - 10 - 1008.0 1008.3 -
28/08:30pm 29.0 - - - - W 17 - 9 - 1008.0 - -
28/08:00pm 28.7 - - - - W 19 - 10 - 1008.0 1007.9 -
28/07:30pm 29.0 - - - - WSW 19 - 10 - 1007.0 - -
28/07:00pm 29.2 - - - - WSW 20 - 11 - 1007.0 1007.2 -
28/06:30pm 29.0 - - - - WSW 22 - 12 - 1006.0 - -
28/06:00pm 29.1 - - - - SW 20 - 11 - 1006.0 1006.4 -
28/05:30pm 29.0 - - - - WSW 22 - 12 - 1006.0 - -
28/05:00pm 28.7 - - - - W 24 - 13 - 1005.0 1005.6 -
28/04:30pm 29.0 - - - - W 28 - 15 - 1005.0 - -
28/04:00pm 29.0 - - - - W 28 - 15 - 1004.0 1004.8 -
28/03:30pm 28.0 - - - - W 28 - 15 - 1005.0 - -
28/03:00pm 28.2 - - - - W 30 - 16 - 1005.0 1005.6 -
28/02:30pm 29.0 - - - - W 20 - 11 - 1006.0 - -
28/02:00pm 28.8 - - - - W 22 - 12 - 1006.0 1006.0 -
28/01:30pm 29.0 - - - - W 26 - 14 - 1006.0 - -
28/01:00pm 27.2 - - - - W 33 - 18 - 1007.0 1007.1 -
28/12:53pm 28.0 - - - - W 33 - 18 - 1007.0 - -
28/12:30pm 29.0 - - - - W 15 - 8 - 1007.0 - -
28/12:00pm 29.1 - - - - W 15 - 8 - 1008.0 1007.9 -
28/11:30am 28.0 - - - - W 19 - 10 - 1008.0 - -
28/11:00am 28.0 - - - - W 26 - 14 - 1008.0 1008.4 -
28/10:30am 28.0 - - - - SW 22 - 12 - 1008.0 - -
28/10:00am 29.7 - - - - W 20 - 11 - 1008.0 1008.6 -
28/09:30am 30.0 - - - - W 19 - 10 - 1008.0 - -
28/09:00am 29.5 - - - - WSW 20 - 11 - 1008.0 1008.8 -
28/08:30am 29.0 - - - - WSW 20 - 11 - 1008.0 - -
28/08:00am 29.1 - - - - W 24 - 13 - 1008.0 1008.4 -
28/07:30am 29.0 - - - - W 24 - 13 - 1008.0 - -
28/07:00am 29.1 - - - - W 19 - 10 - 1008.0 1008.0 -
28/06:30am 29.0 - - - - WSW 19 - 10 - 1007.0 - -
28/06:00am 29.0 - - - - WSW 19 - 10 - 1007.0 1007.6 -
28/05:30am 29.0 - - - - WSW 22 - 12 - 1007.0 - -
28/05:00am 29.0 - - - - W 20 - 11 - 1007.0 1006.9 -
28/04:30am 29.0 - - - - W 22 - 12 - 1006.0 - -
28/04:00am 29.0 - - - - WSW 20 - 11 - 1006.0 1006.1 -
28/03:30am 29.0 - - - - W 22 - 12 - 1006.0 - -
28/03:00am 28.8 - - - - WSW 24 - 13 - 1006.0 1006.1 -
28/02:30am 29.0 - - - - W 22 - 12 - 1006.0 - -
28/02:00am 28.5 - - - - W 22 - 12 - 1006.0 1006.2 -
28/01:30am 29.0 - - - - WSW 22 - 12 - 1006.0 - -
28/01:00am 28.6 - - - - W 20 - 11 - 1006.0 1006.8 -
28/12:30am 29.0 - - - - W 20 - 11 - 1007.0 - -
28/12:00am 28.7 - - - - W 24 - 13 - 1007.0 1007.3 -
 
Date/Time
WST
Temp
°C
App
Temp
°C
Dew
Point
Rel
Hum
%
Delta-T
°C
Wind Press
QNH
hPa
Press
MSL
hPa
Rain
since 9 am
mm
Dir
 
Spd
km/h
Gust
km/h
Spd
kts
Gust
kts
27/11:30pm 29.0 - - - - W 26 - 14 - 1007.0 - -
27/11:00pm 29.0 - - - - W 20 - 11 - 1007.0 1007.5 -
27/10:30pm 29.0 - - - - W 19 - 10 - 1007.0 - -
27/10:00pm 28.6 - - - - NW 13 - 7 - 1007.0 1007.7 -
27/09:30pm 29.0 - - - - WNW 22 - 12 - 1007.0 - -
27/09:00pm 28.4 - - - - WNW 26 - 14 - 1008.0 1007.9 -
27/08:30pm 29.0 - - - - WNW 20 - 11 - 1008.0 - -
27/08:00pm 29.2 - - - - NW 20 - 11 - 1007.0 1007.7 -
27/07:30pm 29.0 - - - - NNW 17 - 9 - 1007.0 - -

Other Formats:

Comma delimited format used in spreadsheet applications
http://www.bom.gov.au/fwo/IDW60801/IDW60801.94103.axf

JavaScript Object Notation format (JSON) in row-major order
http://www.bom.gov.au/fwo/IDW60801/IDW60801.94103.json